createdAt,value
2023-02-19T00:00:05.567Z,15.90
2023-02-19T00:02:42.445Z,13.00
2023-02-19T00:05:10.799Z,10.30
2023-02-19T00:07:39.413Z,9.60
2023-02-19T00:10:08.815Z,10.50
2023-02-19T00:12:37.692Z,9.60
2023-02-19T00:15:07.918Z,10.90
2023-02-19T00:17:36.190Z,9.10
2023-02-19T00:20:07.125Z,10.50
2023-02-19T00:22:36.636Z,9.90
2023-02-19T00:25:05.525Z,11.40
2023-02-19T00:27:34.207Z,13.40
2023-02-19T00:30:02.632Z,14.50
2023-02-19T00:32:32.949Z,13.50
2023-02-19T00:35:02.423Z,12.30
2023-02-19T00:37:33.967Z,14.40
2023-02-19T00:40:02.663Z,11.80
2023-02-19T00:42:31.240Z,13.30
2023-02-19T00:45:00.946Z,13.90
2023-02-19T00:47:29.427Z,11.60
2023-02-19T00:49:58.135Z,11.80
2023-02-19T00:52:26.530Z,12.90
2023-02-19T00:54:57.741Z,11.50
2023-02-19T00:57:27.137Z,12.10
2023-02-19T00:59:56.672Z,13.10
2023-02-19T01:02:27.172Z,12.20
2023-02-19T01:04:57.862Z,11.50
2023-02-19T01:07:26.596Z,10.40
2023-02-19T01:09:54.882Z,12.20
2023-02-19T01:12:24.569Z,14.90
2023-02-19T01:14:53.483Z,16.30
2023-02-19T01:17:23.685Z,13.40
2023-02-19T01:19:53.287Z,11.70
2023-02-19T01:22:21.667Z,17.60
2023-02-19T01:24:50.247Z,15.30
2023-02-19T01:27:18.837Z,14.00
2023-02-19T01:29:50.324Z,18.50
2023-02-19T01:32:18.914Z,21.00
2023-02-19T01:34:47.340Z,19.90
2023-02-19T01:37:15.935Z,14.60
2023-02-19T01:39:44.408Z,19.50
2023-02-19T01:42:14.735Z,15.30
2023-02-19T01:44:43.219Z,18.30
2023-02-19T01:47:12.318Z,15.10
2023-02-19T01:49:49.187Z,15.10
2023-02-19T01:52:32.927Z,14.00
2023-02-19T01:55:02.734Z,10.90
2023-02-19T01:57:34.296Z,14.70
2023-02-19T02:00:06.073Z,13.60
2023-02-19T02:02:43.549Z,13.70
2023-02-19T02:05:18.579Z,13.50
2023-02-19T02:08:05.792Z,12.40
2023-02-19T02:10:34.378Z,11.90
2023-02-19T02:13:09.202Z,12.20
2023-02-19T02:16:13.365Z,11.90
2023-02-19T02:19:24.809Z,12.60
2023-02-19T02:22:04.553Z,14.60
2023-02-19T02:24:48.906Z,16.60
2023-02-19T02:27:55.385Z,14.30
2023-02-19T02:30:36.458Z,18.10
2023-02-19T02:33:40.169Z,12.60
2023-02-19T02:36:13.594Z,19.30
2023-02-19T02:38:43.166Z,20.50
2023-02-19T02:41:11.666Z,21.50
2023-02-19T02:43:41.085Z,21.10
2023-02-19T02:46:14.040Z,22.30
2023-02-19T02:48:56.028Z,24.60
2023-02-19T02:51:31.573Z,20.30
2023-02-19T02:54:30.775Z,19.70
2023-02-19T02:57:00.593Z,19.00
2023-02-19T02:59:33.894Z,18.80
2023-02-19T03:02:11.133Z,18.10
2023-02-19T03:05:08.393Z,22.10
2023-02-19T03:07:40.590Z,32.40
2023-02-19T03:10:11.202Z,41.40
2023-02-19T03:12:58.335Z,37.70
2023-02-19T03:15:52.518Z,35.30
2023-02-19T03:18:39.738Z,33.40
2023-02-19T03:21:09.113Z,29.00
2023-02-19T03:26:27.643Z,24.60
2023-02-19T03:29:15.130Z,29.30
2023-02-19T03:31:46.171Z,29.40
2023-02-19T03:34:17.411Z,21.30
2023-02-19T03:36:48.464Z,16.90
2023-02-19T03:39:18.164Z,13.40
2023-02-19T03:41:55.759Z,16.10
2023-02-19T03:44:30.278Z,11.80
2023-02-19T03:47:10.541Z,12.50
2023-02-19T03:49:49.565Z,14.60
2023-02-19T03:52:26.953Z,24.90
2023-02-19T03:55:08.546Z,12.10
2023-02-19T03:57:53.513Z,11.90
2023-02-19T04:00:32.855Z,14.10
2023-02-19T04:03:21.704Z,12.60
2023-02-19T04:05:55.923Z,15.00
2023-02-19T04:08:24.610Z,14.20
2023-02-19T04:10:58.390Z,14.80
2023-02-19T04:13:33.198Z,13.80
2023-02-19T04:16:08.688Z,14.00
2023-02-19T04:18:43.619Z,14.40
2023-02-19T04:21:12.369Z,13.30
2023-02-19T04:23:42.818Z,14.80
2023-02-19T04:26:11.848Z,15.70
2023-02-19T04:28:40.608Z,14.40
2023-02-19T04:31:09.459Z,13.00
2023-02-19T04:33:38.488Z,12.60
2023-02-19T04:36:08.069Z,12.90
2023-02-19T04:38:36.474Z,13.10
2023-02-19T04:41:06.090Z,15.20
2023-02-19T04:43:34.559Z,18.40
2023-02-19T04:46:03.285Z,12.60
2023-02-19T04:48:33.669Z,14.80
2023-02-19T04:51:06.857Z,12.20
2023-02-19T04:53:39.973Z,12.40
2023-02-19T04:56:12.935Z,12.20
2023-02-19T04:58:41.674Z,13.60
2023-02-19T05:01:10.555Z,13.40
2023-02-19T05:03:39.912Z,13.30
2023-02-19T05:06:10.346Z,12.40
2023-02-19T05:08:38.822Z,14.20
2023-02-19T05:11:08.204Z,12.10
2023-02-19T05:13:38.660Z,13.10
2023-02-19T05:16:14.086Z,13.60
2023-02-19T05:18:43.715Z,12.80
2023-02-19T05:21:12.992Z,11.40
2023-02-19T05:23:41.683Z,12.40
2023-02-19T05:26:18.477Z,13.10
2023-02-19T05:28:48.272Z,11.30
2023-02-19T05:31:17.025Z,12.30
2023-02-19T05:33:48.505Z,12.00
2023-02-19T05:39:41.585Z,10.70
2023-02-19T05:42:09.975Z,10.70
2023-02-19T05:44:39.054Z,10.20
2023-02-19T05:47:07.739Z,11.30
2023-02-19T05:49:36.427Z,13.90
2023-02-19T05:52:05.626Z,9.90
2023-02-19T05:54:34.243Z,11.10
2023-02-19T05:57:02.590Z,11.00
2023-02-19T05:59:31.984Z,10.90
2023-02-19T06:02:04.466Z,10.70
2023-02-19T06:04:32.838Z,11.50
2023-02-19T06:07:02.451Z,11.60
2023-02-19T06:09:32.670Z,11.30
2023-02-19T06:12:00.969Z,10.60
2023-02-19T06:14:30.751Z,9.70
2023-02-19T06:16:59.333Z,10.50
2023-02-19T06:19:27.519Z,10.10
2023-02-19T06:21:55.911Z,8.90
2023-02-19T06:24:24.266Z,8.80
2023-02-19T06:26:52.646Z,10.30
2023-02-19T06:29:21.250Z,8.60
2023-02-19T06:31:49.623Z,8.40
2023-02-19T06:34:18.290Z,8.00
2023-02-19T06:36:49.235Z,7.60
2023-02-19T06:39:17.613Z,8.90
2023-02-19T06:41:47.515Z,13.20
2023-02-19T06:44:16.015Z,10.20
2023-02-19T06:46:46.989Z,12.80
2023-02-19T06:49:15.731Z,10.00
2023-02-19T06:51:44.217Z,9.10
2023-02-19T06:54:12.897Z,9.90
2023-02-19T06:56:41.696Z,13.10
2023-02-19T06:59:17.129Z,12.40
2023-02-19T07:01:45.829Z,13.30
2023-02-19T07:04:14.260Z,12.40
2023-02-19T07:06:42.777Z,12.50
2023-02-19T07:09:11.562Z,11.00
2023-02-19T07:11:40.156Z,11.10
2023-02-19T07:14:09.340Z,11.50
2023-02-19T07:16:39.612Z,9.60
2023-02-19T07:19:08.343Z,9.30
2023-02-19T07:21:38.151Z,8.70
2023-02-19T07:24:07.158Z,8.40
2023-02-19T07:26:35.437Z,8.30
2023-02-19T07:29:04.435Z,8.30
2023-02-19T07:31:32.868Z,8.20
2023-02-19T07:34:01.382Z,8.10
2023-02-19T07:36:29.959Z,8.10
2023-02-19T07:39:00.385Z,7.60
2023-02-19T07:41:29.493Z,7.30
2023-02-19T07:43:59.198Z,7.70
2023-02-19T07:46:28.184Z,8.40
2023-02-19T07:49:00.056Z,8.40
2023-02-19T07:51:30.478Z,8.50
2023-02-19T07:54:01.823Z,8.40
2023-02-19T07:56:30.712Z,10.10
2023-02-19T07:59:00.507Z,9.20
2023-02-19T08:01:47.654Z,10.00
2023-02-19T08:04:16.327Z,10.90
2023-02-19T08:06:45.317Z,10.70
2023-02-19T08:09:13.912Z,10.40
2023-02-19T08:12:01.018Z,11.70
2023-02-19T08:14:30.009Z,11.60
2023-02-19T08:16:58.357Z,11.70
2023-02-19T08:19:26.771Z,12.70
2023-02-19T08:21:55.353Z,13.20
2023-02-19T08:24:29.157Z,12.00
2023-02-19T08:26:57.915Z,12.30
2023-02-19T08:29:26.533Z,12.40
2023-02-19T08:31:54.747Z,11.50
2023-02-19T08:34:23.385Z,13.80
2023-02-19T08:36:52.579Z,11.90
2023-02-19T08:39:21.411Z,11.00
2023-02-19T08:41:51.836Z,10.60
2023-02-19T08:44:20.312Z,11.30
2023-02-19T08:46:54.283Z,10.50
2023-02-19T08:49:26.964Z,11.60
2023-02-19T08:51:55.543Z,10.70
2023-02-19T08:54:23.918Z,10.80
2023-02-19T08:56:52.405Z,10.30
2023-02-19T08:59:20.881Z,10.70
2023-02-19T09:01:49.871Z,10.30
2023-02-19T09:04:18.590Z,9.90
2023-02-19T09:06:47.139Z,11.20
2023-02-19T09:09:15.624Z,9.30
2023-02-19T09:11:44.446Z,7.60
2023-02-19T09:14:12.887Z,7.80
2023-02-19T09:16:41.268Z,7.00
2023-02-19T09:19:09.539Z,8.40
2023-02-19T09:21:37.922Z,7.30
2023-02-19T09:24:08.559Z,8.60
2023-02-19T09:26:38.609Z,8.20
2023-02-19T09:29:07.257Z,7.90
2023-02-19T09:31:35.647Z,7.60
2023-02-19T09:34:04.264Z,8.00
2023-02-19T09:36:33.846Z,10.60
2023-02-19T09:39:02.410Z,9.10
2023-02-19T09:41:32.741Z,7.80
2023-02-19T09:44:02.759Z,7.90
2023-02-19T09:46:32.409Z,7.80
2023-02-19T09:49:06.724Z,7.10
2023-02-19T09:51:36.717Z,8.90
2023-02-19T09:54:07.120Z,7.70
2023-02-19T09:56:35.698Z,7.90
2023-02-19T09:59:04.088Z,7.90
2023-02-19T10:01:34.305Z,6.90
2023-02-19T10:04:02.688Z,6.80
2023-02-19T10:06:32.279Z,6.70
2023-02-19T10:09:14.706Z,7.50
2023-02-19T10:11:43.471Z,7.10
2023-02-19T10:14:22.806Z,6.70
2023-02-19T10:16:51.082Z,7.10
2023-02-19T10:19:19.466Z,6.80
2023-02-19T10:21:48.045Z,7.10
2023-02-19T10:24:37.503Z,6.80
2023-02-19T10:27:14.392Z,7.10
2023-02-19T10:29:47.087Z,7.20
2023-02-19T10:32:18.914Z,6.50
2023-02-19T10:34:47.723Z,5.60
2023-02-19T10:37:18.919Z,8.10
2023-02-19T10:39:48.165Z,5.40
2023-02-19T10:42:21.249Z,5.10
2023-02-19T10:44:55.777Z,4.50
2023-02-19T10:47:26.028Z,4.20
2023-02-19T10:49:57.171Z,2.90
2023-02-19T10:52:30.339Z,3.40
2023-02-19T10:55:37.457Z,2.80
2023-02-19T10:58:27.936Z,2.80
2023-02-19T11:01:19.842Z,2.30
2023-02-19T11:06:22.304Z,2.20
2023-02-19T11:08:51.935Z,3.50
2023-02-19T11:11:27.484Z,2.40
2023-02-19T11:13:56.987Z,2.70
2023-02-19T11:16:25.584Z,2.70
2023-02-19T11:18:57.354Z,2.40
2023-02-19T11:21:29.804Z,2.60
2023-02-19T11:23:58.075Z,6.00
2023-02-19T11:26:27.485Z,2.50
2023-02-19T11:29:00.476Z,2.60
2023-02-19T11:31:32.144Z,2.40
2023-02-19T11:34:02.245Z,2.50
2023-02-19T11:36:34.934Z,2.60
2023-02-19T11:39:20.501Z,2.40
2023-02-19T11:41:49.046Z,4.20
2023-02-19T11:44:30.672Z,2.70
2023-02-19T11:47:17.892Z,2.90
2023-02-19T11:49:59.173Z,3.70
2023-02-19T11:52:43.230Z,2.30
2023-02-19T11:55:18.355Z,1.90
2023-02-19T11:57:48.684Z,1.80
2023-02-19T12:00:32.449Z,2.40
2023-02-19T12:03:11.557Z,1.90
2023-02-19T12:06:15.967Z,2.30
2023-02-19T12:09:05.438Z,2.00
2023-02-19T12:11:43.860Z,1.50
2023-02-19T12:14:41.117Z,1.40
2023-02-19T12:17:57.613Z,1.90
2023-02-19T12:20:47.500Z,1.90
2023-02-19T12:23:46.695Z,1.30
2023-02-19T12:26:45.999Z,2.60
2023-02-19T12:29:41.921Z,3.30
2023-02-19T12:32:13.575Z,1.70
2023-02-19T12:35:12.264Z,1.80
2023-02-19T12:37:49.253Z,2.60
2023-02-19T12:40:43.749Z,2.60
2023-02-19T12:43:17.339Z,2.90
2023-02-19T12:45:52.612Z,4.10
2023-02-19T12:48:21.157Z,5.10
2023-02-19T12:50:50.466Z,2.90
2023-02-19T12:53:32.190Z,2.10
2023-02-19T12:56:00.944Z,1.90
2023-02-19T12:58:32.711Z,2.70
2023-02-19T13:01:01.549Z,2.60
2023-02-19T13:03:53.966Z,1.70
2023-02-19T13:06:32.452Z,2.60
2023-02-19T13:09:31.339Z,1.80
2023-02-19T13:12:03.609Z,1.80
2023-02-19T13:15:15.323Z,1.70
2023-02-19T13:17:55.797Z,2.70
2023-02-19T13:20:29.879Z,1.80
2023-02-19T13:23:36.657Z,2.50
2023-02-19T13:26:19.908Z,3.60
2023-02-19T13:29:00.750Z,3.10
2023-02-19T13:31:57.768Z,5.40
2023-02-19T13:35:03.865Z,3.40
2023-02-19T13:37:36.334Z,4.10
2023-02-19T13:40:20.275Z,2.60
2023-02-19T13:42:55.518Z,3.10
2023-02-19T13:45:40.685Z,2.30
2023-02-19T13:48:24.222Z,1.50
2023-02-19T13:51:23.871Z,2.20
2023-02-19T13:54:01.627Z,2.30
2023-02-19T13:56:30.094Z,1.70
2023-02-19T13:59:21.834Z,3.30
2023-02-19T14:01:50.457Z,1.70
2023-02-19T14:05:00.466Z,2.50
2023-02-19T14:07:32.125Z,2.70
2023-02-19T14:10:02.141Z,6.30
2023-02-19T14:12:37.396Z,2.50
2023-02-19T14:15:37.047Z,4.00
2023-02-19T14:18:43.367Z,3.60
2023-02-19T14:21:26.211Z,4.30
2023-02-19T14:23:56.434Z,5.20
2023-02-19T14:26:25.596Z,4.70
2023-02-19T14:28:54.070Z,3.10
2023-02-19T14:31:40.319Z,6.90
2023-02-19T14:34:22.593Z,5.50
2023-02-19T14:36:56.723Z,5.40
2023-02-19T14:39:26.608Z,5.20
2023-02-19T14:41:58.465Z,3.20
2023-02-19T14:44:31.851Z,6.00
2023-02-19T14:47:12.107Z,3.90
2023-02-19T14:49:48.896Z,8.10
2023-02-19T14:52:36.952Z,6.10
2023-02-19T14:55:10.327Z,2.80
2023-02-19T14:57:40.577Z,2.60
2023-02-19T15:00:29.092Z,2.40
2023-02-19T15:02:59.831Z,2.40
2023-02-19T15:05:33.516Z,2.10
2023-02-19T15:08:23.202Z,2.80
2023-02-19T15:14:22.839Z,2.70
2023-02-19T15:16:55.083Z,4.40
2023-02-19T15:19:24.810Z,4.10
2023-02-19T15:21:55.951Z,2.30
2023-02-19T15:24:24.435Z,3.50
2023-02-19T15:26:54.491Z,3.40
2023-02-19T15:29:24.474Z,2.80
2023-02-19T15:31:57.802Z,7.80
2023-02-19T15:34:30.663Z,3.50
2023-02-19T15:37:04.072Z,2.80
2023-02-19T15:39:43.891Z,3.70
2023-02-19T15:42:24.667Z,2.90
2023-02-19T15:45:01.545Z,3.10
2023-02-19T15:47:45.997Z,3.20
2023-02-19T15:50:23.493Z,4.60
2023-02-19T15:53:04.980Z,3.00
2023-02-19T15:56:16.171Z,4.60
2023-02-19T15:58:51.994Z,3.30
2023-02-19T16:01:27.683Z,3.70
2023-02-19T16:03:56.252Z,3.80
2023-02-19T16:06:25.536Z,4.20
2023-02-19T16:09:05.904Z,3.80
2023-02-19T16:11:36.674Z,4.00
2023-02-19T16:14:36.954Z,7.60
2023-02-19T16:17:12.604Z,4.80
2023-02-19T16:19:46.829Z,4.50
2023-02-19T16:22:21.668Z,6.10
2023-02-19T16:24:51.586Z,6.70
2023-02-19T16:27:41.578Z,7.70
2023-02-19T16:30:26.976Z,5.60
2023-02-19T16:33:36.784Z,8.40
2023-02-19T16:36:24.195Z,5.60
2023-02-19T16:39:08.145Z,3.30
2023-02-19T16:41:40.210Z,7.20
2023-02-19T16:46:49.558Z,3.30
2023-02-19T16:49:17.959Z,4.20
2023-02-19T16:51:46.697Z,5.60
2023-02-19T16:54:14.929Z,5.40
2023-02-19T16:56:44.515Z,3.60
2023-02-19T16:59:13.096Z,3.90
2023-02-19T17:01:43.432Z,3.50
2023-02-19T17:04:12.906Z,3.50
2023-02-19T17:06:41.391Z,3.90
2023-02-19T17:09:09.671Z,7.30
2023-02-19T17:11:40.092Z,6.80
2023-02-19T17:14:09.602Z,4.40
2023-02-19T17:16:40.663Z,5.70
2023-02-19T17:19:13.118Z,3.80
2023-02-19T17:24:14.998Z,7.70
2023-02-19T17:26:43.396Z,8.10
2023-02-19T17:29:14.276Z,6.10
2023-02-19T17:31:42.923Z,8.80
2023-02-19T17:34:11.592Z,6.90
2023-02-19T17:36:43.237Z,7.90
2023-02-19T17:39:17.328Z,8.90
2023-02-19T17:41:45.614Z,11.30
2023-02-19T17:44:13.887Z,10.80
2023-02-19T17:46:42.469Z,10.30
2023-02-19T17:49:11.568Z,8.80
2023-02-19T17:51:40.494Z,6.40
2023-02-19T17:54:09.767Z,7.70
2023-02-19T17:56:43.459Z,9.40
2023-02-19T17:59:12.048Z,6.30
2023-02-19T18:01:40.371Z,12.90
2023-02-19T18:04:08.925Z,7.90
2023-02-19T18:06:37.487Z,7.00
2023-02-19T18:09:06.279Z,10.00
2023-02-19T18:11:37.198Z,10.20
2023-02-19T18:17:34.075Z,10.00
2023-02-19T18:20:07.162Z,10.30
2023-02-19T18:22:35.643Z,11.90
2023-02-19T18:25:04.021Z,9.40
2023-02-19T18:27:32.399Z,7.90
2023-02-19T18:30:01.036Z,10.50
2023-02-19T18:32:29.564Z,10.10
2023-02-19T18:34:59.279Z,9.90
2023-02-19T18:37:28.066Z,9.60
2023-02-19T18:39:56.543Z,12.00
2023-02-19T18:42:25.022Z,14.30
2023-02-19T18:44:54.233Z,19.40
2023-02-19T18:47:27.312Z,15.50
2023-02-19T18:49:56.715Z,14.60
2023-02-19T18:52:25.703Z,19.10
2023-02-19T18:54:55.428Z,19.80
2023-02-19T18:57:24.409Z,21.30
2023-02-19T18:59:54.273Z,15.00
2023-02-19T19:02:22.642Z,18.90
2023-02-19T19:04:52.267Z,14.50
2023-02-19T19:07:20.712Z,14.10
2023-02-19T19:09:49.163Z,15.90
2023-02-19T19:12:17.469Z,16.00
2023-02-19T19:14:46.126Z,14.20
2023-02-19T19:17:14.813Z,19.50
2023-02-19T19:19:44.930Z,16.70
2023-02-19T19:22:13.210Z,19.10
2023-02-19T19:24:41.690Z,15.70
2023-02-19T19:27:10.068Z,20.30
2023-02-19T19:29:38.956Z,19.70
2023-02-19T19:32:08.712Z,18.00
2023-02-19T19:34:37.556Z,16.90
2023-02-19T19:37:06.257Z,18.00
2023-02-19T19:39:34.597Z,18.80
2023-02-19T19:42:02.994Z,14.50
2023-02-19T19:44:33.635Z,12.40
2023-02-19T19:47:02.023Z,14.30
2023-02-19T19:49:30.381Z,16.00
2023-02-19T19:52:01.400Z,14.70
2023-02-19T19:54:34.612Z,14.50
2023-02-19T19:57:03.195Z,14.30
2023-02-19T19:59:31.675Z,15.00
2023-02-19T20:02:03.021Z,12.40
2023-02-19T20:04:32.220Z,14.80
2023-02-19T20:07:00.702Z,14.50
2023-02-19T20:09:30.830Z,12.00
2023-02-19T20:11:59.403Z,12.80
2023-02-19T20:14:27.791Z,14.90
2023-02-19T20:17:00.664Z,14.10
2023-02-19T20:19:29.368Z,13.00
2023-02-19T20:21:57.931Z,11.80
2023-02-19T20:24:28.865Z,13.00
2023-02-19T20:26:58.854Z,11.70
2023-02-19T20:29:30.478Z,11.40
2023-02-19T20:32:00.375Z,11.60
2023-02-19T20:34:50.334Z,12.40
2023-02-19T20:37:19.030Z,18.20
2023-02-19T20:39:47.904Z,12.20
2023-02-19T20:42:17.104Z,11.90
2023-02-19T20:44:45.894Z,14.60
2023-02-19T20:47:14.172Z,13.00
2023-02-19T20:49:45.313Z,16.60
2023-02-19T20:52:15.124Z,14.60
2023-02-19T20:54:44.637Z,12.40
2023-02-19T20:57:13.620Z,13.80
2023-02-19T20:59:44.420Z,11.40
2023-02-19T21:02:21.846Z,14.50
2023-02-19T21:04:50.534Z,25.30
2023-02-19T21:07:20.377Z,14.80
2023-02-19T21:09:48.839Z,16.30
2023-02-19T21:12:19.535Z,10.70
2023-02-19T21:14:49.867Z,11.80
2023-02-19T21:17:18.262Z,12.20
2023-02-19T21:19:49.308Z,14.10
2023-02-19T21:22:18.498Z,10.80
2023-02-19T21:24:49.847Z,11.60
2023-02-19T21:27:18.630Z,12.50
2023-02-19T21:29:47.475Z,11.10
2023-02-19T21:32:15.906Z,11.80
2023-02-19T21:34:44.600Z,10.50
2023-02-19T21:37:12.969Z,11.60
2023-02-19T21:39:42.970Z,11.40
2023-02-19T21:42:11.169Z,10.10
2023-02-19T21:44:41.288Z,11.20
2023-02-19T21:47:15.897Z,10.50
2023-02-19T21:49:44.486Z,11.80
2023-02-19T21:52:12.855Z,11.50
2023-02-19T21:54:41.682Z,11.30
2023-02-19T21:57:10.159Z,11.50
2023-02-19T21:59:39.223Z,11.70
2023-02-19T22:02:07.699Z,10.30
2023-02-19T22:04:37.302Z,10.30
2023-02-19T22:07:06.109Z,11.30
2023-02-19T22:09:34.311Z,14.60
2023-02-19T22:12:02.744Z,12.60
2023-02-19T22:14:31.224Z,13.30
2023-02-19T22:16:59.705Z,13.20
2023-02-19T22:19:28.087Z,11.40
2023-02-19T22:21:56.562Z,12.90
2023-02-19T22:24:24.853Z,11.70
2023-02-19T22:26:57.004Z,9.80
2023-02-19T22:29:25.703Z,10.20
2023-02-19T22:31:54.666Z,10.30
2023-02-19T22:34:23.693Z,9.50
2023-02-19T22:36:58.211Z,11.00
2023-02-19T22:39:44.837Z,9.20
2023-02-19T22:42:13.385Z,7.60
2023-02-19T22:44:45.349Z,6.50
2023-02-19T22:47:14.445Z,5.70
2023-02-19T22:49:45.792Z,5.90
2023-02-19T22:52:14.166Z,7.20
2023-02-19T22:54:43.506Z,6.30
2023-02-19T22:57:11.743Z,7.90
2023-02-19T22:59:40.334Z,7.80
2023-02-19T23:02:08.806Z,6.20
2023-02-19T23:04:38.417Z,6.00
2023-02-19T23:07:07.006Z,5.80
2023-02-19T23:09:35.482Z,5.50
2023-02-19T23:12:10.583Z,5.00
2023-02-19T23:14:40.542Z,3.90
2023-02-19T23:17:09.120Z,3.80
2023-02-19T23:19:39.444Z,2.40
2023-02-19T23:22:08.148Z,2.20
2023-02-19T23:28:00.613Z,3.00
2023-02-19T23:30:29.331Z,2.30
2023-02-19T23:32:57.654Z,1.80
2023-02-19T23:35:26.131Z,3.20
2023-02-19T23:37:56.144Z,1.30
2023-02-19T23:40:25.043Z,1.80
2023-02-19T23:42:54.948Z,1.80
2023-02-19T23:45:23.752Z,1.80
2023-02-19T23:47:52.019Z,3.30
2023-02-19T23:50:20.389Z,2.40
2023-02-19T23:52:49.268Z,2.10
2023-02-19T23:55:18.165Z,4.20
2023-02-19T23:57:46.452Z,2.20
